Terminal Aerodrome Forecast
Issued by NWS Flagstaff, AZ

Home | Current Version | Previous Version | Text Only | Print | Product List | Glossary On
Versions: 1 2 3 4 5 6 7 8 9 10 11 12 13
795
FTUS45 KFGZ 220520
TAFINW
TAF
KINW 220520Z 2206/2306 22010KT P6SM SCT150 BKN250
     FM221700 21018G28KT P6SM FEW150 BKN200
     FM222100 22024G35KT P6SM BKN200
     FM230200 22020KT P6SM SCT200=

USA.gov is the U.S. government's official web portal to all federal, state and local government web resources and services.